createdAt,value
2018-02-26T00:00:40.083Z,-4.86
2018-02-26T00:01:39.554Z,-4.86
2018-02-26T00:02:40.066Z,-4.92
2018-02-26T00:03:39.766Z,-4.96
2018-02-26T00:04:40.000Z,-5.03
2018-02-26T00:05:40.005Z,-5.03
2018-02-26T00:06:39.964Z,-5
2018-02-26T00:07:39.975Z,-4.99
2018-02-26T00:08:39.941Z,-4.96
2018-02-26T00:09:39.907Z,-4.95
2018-02-26T00:10:39.636Z,-4.99
2018-02-26T00:11:39.862Z,-5
2018-02-26T00:12:39.850Z,-4.97
2018-02-26T00:13:39.838Z,-4.9
2018-02-26T00:14:39.550Z,-4.92
2018-02-26T00:15:39.807Z,-4.85
2018-02-26T00:16:39.785Z,-4.83
2018-02-26T00:17:39.750Z,-4.83
2018-02-26T00:18:39.463Z,-4.85
2018-02-26T00:19:39.713Z,-4.85
2018-02-26T00:20:39.689Z,-4.77
2018-02-26T00:21:39.665Z,-4.81
2018-02-26T00:22:39.651Z,-4.92
2018-02-26T00:23:39.873Z,-4.93
2018-02-26T00:24:39.600Z,-4.92
2018-02-26T00:25:39.596Z,-4.97
2018-02-26T00:26:39.575Z,-5
2018-02-26T00:27:39.293Z,-5
2018-02-26T00:28:39.520Z,-5.07
2018-02-26T00:29:39.504Z,-5.1
2018-02-26T00:30:39.513Z,-5.08
2018-02-26T00:31:39.460Z,-5.17
2018-02-26T00:32:39.453Z,-5.17
2018-02-26T00:33:39.739Z,-5.17
2018-02-26T00:34:39.401Z,-5.19
2018-02-26T00:35:39.380Z,-5.18
2018-02-26T00:36:39.370Z,-5.29
2018-02-26T00:37:39.349Z,-5.27
2018-02-26T00:38:39.324Z,-5.23
2018-02-26T00:39:39.304Z,-5.29
2018-02-26T00:40:39.290Z,-5.41
2018-02-26T00:41:39.268Z,-5.25
2018-02-26T00:42:39.245Z,-5.3
2018-02-26T00:43:39.230Z,-5.29
2018-02-26T00:44:39.207Z,-5.39
2018-02-26T00:45:39.185Z,-5.39
2018-02-26T00:46:39.180Z,-5.37
2018-02-26T00:47:39.150Z,-5.44
2018-02-26T00:48:39.132Z,-5.41
2018-02-26T00:49:39.100Z,-5.39
2018-02-26T00:50:39.078Z,-5.51
2018-02-26T00:51:39.069Z,-5.37
2018-02-26T00:52:39.050Z,-5.46
2018-02-26T00:53:39.025Z,-5.5
2018-02-26T00:54:39.253Z,-5.57
2018-02-26T00:55:38.982Z,-5.43
2018-02-26T00:56:38.969Z,-5.46
2018-02-26T00:57:38.955Z,-5.47
2018-02-26T00:58:38.925Z,-5.54
2018-02-26T00:59:38.920Z,-5.57
2018-02-26T01:00:38.617Z,-5.57
2018-02-26T01:01:38.873Z,-5.5
2018-02-26T01:02:38.834Z,-5.46
2018-02-26T01:03:38.563Z,-5.54
2018-02-26T01:04:38.544Z,-5.48
2018-02-26T01:05:38.774Z,-5.59
2018-02-26T01:06:38.757Z,-5.59
2018-02-26T01:07:38.732Z,-5.54
2018-02-26T01:08:38.716Z,-5.55
2018-02-26T01:09:38.447Z,-5.71
2018-02-26T01:10:38.691Z,-5.74
2018-02-26T01:11:38.662Z,-5.54
2018-02-26T01:12:38.639Z,-5.55
2018-02-26T01:13:38.620Z,-5.48
2018-02-26T01:14:38.599Z,-5.71
2018-02-26T01:15:38.575Z,-5.51
2018-02-26T01:16:38.607Z,-5.74
2018-02-26T01:17:38.542Z,-5.59
2018-02-26T01:18:38.529Z,-5.74
2018-02-26T01:19:38.236Z,-5.65
2018-02-26T01:20:38.496Z,-5.69
2018-02-26T01:21:38.445Z,-5.71
2018-02-26T01:22:38.453Z,-5.61
2018-02-26T01:23:38.410Z,-5.65
2018-02-26T01:24:38.394Z,-5.75
2018-02-26T01:25:38.626Z,-5.79
2018-02-26T01:26:38.348Z,-5.8
2018-02-26T01:27:38.328Z,-5.79
2018-02-26T01:28:38.319Z,-5.79
2018-02-26T01:29:38.031Z,-5.83
2018-02-26T01:30:38.277Z,-5.83
2018-02-26T01:31:38.254Z,-5.86
2018-02-26T01:32:38.232Z,-5.9
2018-02-26T01:33:38.205Z,-5.89
2018-02-26T01:34:38.189Z,-5.86
2018-02-26T01:35:37.913Z,-5.83
2018-02-26T01:36:38.144Z,-5.92
2018-02-26T01:37:38.137Z,-5.83
2018-02-26T01:38:38.109Z,-5.92
2018-02-26T01:39:38.085Z,-5.89
2018-02-26T01:40:38.070Z,-5.87
2018-02-26T01:41:38.059Z,-5.94
2018-02-26T01:42:38.014Z,-5.94
2018-02-26T01:43:37.743Z,-6.03
2018-02-26T01:44:38.065Z,-6.03
2018-02-26T01:45:37.973Z,-6.07
2018-02-26T01:46:37.938Z,-6.05
2018-02-26T01:47:37.935Z,-6.08
2018-02-26T01:48:37.895Z,-6.13
2018-02-26T01:49:37.893Z,-6.08
2018-02-26T01:50:37.608Z,-6.08
2018-02-26T01:51:37.849Z,-6.07
2018-02-26T01:52:37.828Z,-6.07
2018-02-26T01:53:37.794Z,-6.05
2018-02-26T01:54:37.513Z,-6.07
2018-02-26T01:55:37.753Z,-6.11
2018-02-26T01:56:37.730Z,-6.15
2018-02-26T01:57:37.450Z,-6.11
2018-02-26T01:58:37.699Z,-6.13
2018-02-26T01:59:37.420Z,-6.11
2018-02-26T02:00:37.658Z,-6.11
2018-02-26T02:01:37.633Z,-6.26
2018-02-26T02:02:37.610Z,-6.19
2018-02-26T02:03:37.594Z,-6.22
2018-02-26T02:04:37.333Z,-6.25
2018-02-26T02:05:37.573Z,-6.25
2018-02-26T02:06:37.533Z,-6.23
2018-02-26T02:07:37.515Z,-6.19
2018-02-26T02:08:37.505Z,-6.25
2018-02-26T02:09:37.484Z,-6.26
2018-02-26T02:10:37.445Z,-6.25
2018-02-26T02:11:37.437Z,-6.25
2018-02-26T02:12:37.413Z,-6.31
2018-02-26T02:13:37.392Z,-6.37
2018-02-26T02:14:37.363Z,-6.32
2018-02-26T02:15:37.356Z,-6.43
2018-02-26T02:16:37.313Z,-6.37
2018-02-26T02:17:37.312Z,-6.34
2018-02-26T02:18:37.289Z,-6.44
2018-02-26T02:19:37.277Z,-6.43
2018-02-26T02:20:37.244Z,-6.46
2018-02-26T02:21:37.223Z,-6.43
2018-02-26T02:22:37.210Z,-6.42
2018-02-26T02:23:37.187Z,-6.42
2018-02-26T02:24:37.165Z,-6.39
2018-02-26T02:25:37.133Z,-6.47
2018-02-26T02:26:37.130Z,-6.47
2018-02-26T02:27:37.087Z,-6.49
2018-02-26T02:28:37.086Z,-6.46
2018-02-26T02:29:37.050Z,-6.52
2018-02-26T02:30:37.029Z,-6.54
2018-02-26T02:31:36.751Z,-6.54
2018-02-26T02:32:36.988Z,-6.49
2018-02-26T02:33:36.989Z,-6.55
2018-02-26T02:34:36.972Z,-6.5
2018-02-26T02:35:36.937Z,-6.66
2018-02-26T02:36:36.925Z,-6.65
2018-02-26T02:37:36.887Z,-6.63
2018-02-26T02:38:37.222Z,-6.62
2018-02-26T02:39:36.864Z,-6.59
2018-02-26T02:40:36.838Z,-6.62
2018-02-26T02:41:36.818Z,-6.59
2018-02-26T02:42:36.802Z,-6.58
2018-02-26T02:43:36.754Z,-6.62
2018-02-26T02:44:36.756Z,-6.63
2018-02-26T02:45:36.749Z,-6.65
2018-02-26T02:46:36.707Z,-6.55
2018-02-26T02:47:36.677Z,-6.5
2018-02-26T02:48:36.661Z,-6.5
2018-02-26T02:49:36.630Z,-6.49
2018-02-26T02:50:36.615Z,-6.55
2018-02-26T02:51:36.591Z,-6.49
2018-02-26T02:52:36.583Z,-6.62
2018-02-26T02:53:36.568Z,-6.63
2018-02-26T02:54:36.537Z,-6.63
2018-02-26T02:55:36.513Z,-6.65
2018-02-26T02:56:36.232Z,-6.61
2018-02-26T02:57:36.219Z,-6.62
2018-02-26T02:58:36.461Z,-6.63
2018-02-26T02:59:36.441Z,-6.62
2018-02-26T03:00:36.428Z,-6.55
2018-02-26T03:01:36.467Z,-6.65
2018-02-26T03:02:36.370Z,-6.61
2018-02-26T03:03:36.355Z,-6.59
2018-02-26T03:04:36.341Z,-6.62
2018-02-26T03:05:36.311Z,-6.62
2018-02-26T03:06:36.296Z,-6.61
2018-02-26T03:07:36.018Z,-6.63
2018-02-26T03:08:36.236Z,-6.71
2018-02-26T03:09:36.222Z,-6.63
2018-02-26T03:10:36.213Z,-6.62
2018-02-26T03:11:36.188Z,-6.71
2018-02-26T03:12:36.168Z,-6.69
2018-02-26T03:13:36.140Z,-6.69
2018-02-26T03:14:36.175Z,-6.74
2018-02-26T03:15:36.105Z,-6.63
2018-02-26T03:16:36.068Z,-6.68
2018-02-26T03:17:36.045Z,-6.66
2018-02-26T03:18:36.034Z,-6.71
2018-02-26T03:19:35.760Z,-6.76
2018-02-26T03:20:35.994Z,-6.73
2018-02-26T03:21:35.972Z,-6.62
2018-02-26T03:22:35.943Z,-6.62
2018-02-26T03:23:35.924Z,-6.62
2018-02-26T03:24:35.911Z,-6.63
2018-02-26T03:25:35.884Z,-6.62
2018-02-26T03:26:35.854Z,-6.58
2018-02-26T03:27:35.868Z,-6.71
2018-02-26T03:28:35.827Z,-6.74
2018-02-26T03:29:35.807Z,-6.71
2018-02-26T03:30:35.790Z,-6.65
2018-02-26T03:31:35.777Z,-6.74
2018-02-26T03:32:35.740Z,-6.73
2018-02-26T03:33:35.717Z,-6.71
2018-02-26T03:34:35.178Z,-6.63
2018-02-26T03:35:35.680Z,-6.83
2018-02-26T03:36:35.673Z,-6.63
2018-02-26T03:37:35.383Z,-6.73
2018-02-26T03:38:35.622Z,-6.69
2018-02-26T03:39:35.598Z,-6.65
2018-02-26T03:40:35.561Z,-6.63
2018-02-26T03:41:35.546Z,-6.63
2018-02-26T03:42:35.531Z,-6.66
2018-02-26T03:43:35.260Z,-6.82
2018-02-26T03:44:35.486Z,-6.76
2018-02-26T03:45:35.470Z,-6.68
2018-02-26T03:46:35.201Z,-6.74
2018-02-26T03:47:35.420Z,-6.8
2018-02-26T03:48:35.400Z,-6.8
2018-02-26T03:49:35.396Z,-6.73
2018-02-26T03:50:35.367Z,-6.79
2018-02-26T03:51:35.336Z,-6.79
2018-02-26T03:52:35.323Z,-6.77
2018-02-26T03:53:35.304Z,-6.79
2018-02-26T03:54:35.272Z,-6.86
2018-02-26T03:55:34.733Z,-6.79
2018-02-26T03:56:35.243Z,-6.84
2018-02-26T03:57:35.217Z,-6.87
2018-02-26T03:58:34.937Z,-6.86
2018-02-26T03:59:35.178Z,-6.86
2018-02-26T04:00:35.163Z,-6.76
2018-02-26T04:01:34.869Z,-6.91
2018-02-26T04:02:35.112Z,-6.8
2018-02-26T04:03:35.092Z,-6.79
2018-02-26T04:04:34.820Z,-6.77
2018-02-26T04:05:34.789Z,-6.82
2018-02-26T04:06:35.021Z,-6.8
2018-02-26T04:07:34.745Z,-6.76
2018-02-26T04:08:34.728Z,-6.63
2018-02-26T04:09:34.701Z,-6.65
2018-02-26T04:10:34.939Z,-6.5
2018-02-26T04:11:34.936Z,-6.46
2018-02-26T04:12:34.905Z,-6.46
2018-02-26T04:13:34.896Z,-6.42
2018-02-26T04:14:34.857Z,-6.36
2018-02-26T04:15:34.850Z,-6.37
2018-02-26T04:16:34.831Z,-6.37
2018-02-26T04:17:34.800Z,-6.29
2018-02-26T04:18:34.772Z,-6.23
2018-02-26T04:19:34.761Z,-6.16
2018-02-26T04:20:34.739Z,-6.11
2018-02-26T04:21:34.716Z,-6.07
2018-02-26T04:22:34.707Z,-5.97
2018-02-26T04:23:34.689Z,-5.97
2018-02-26T04:24:34.654Z,-5.9
2018-02-26T04:25:34.625Z,-5.8
2018-02-26T04:26:34.629Z,-5.71
2018-02-26T04:27:34.585Z,-5.59
2018-02-26T04:28:34.578Z,-5.61
2018-02-26T04:29:34.553Z,-5.53
2018-02-26T04:30:34.542Z,-5.48
2018-02-26T04:31:34.508Z,-5.41
2018-02-26T04:32:34.504Z,-5.37
2018-02-26T04:33:34.459Z,-5.35
2018-02-26T04:34:34.453Z,-5.26
2018-02-26T04:35:34.446Z,-5.22
2018-02-26T04:36:34.396Z,-5.13
2018-02-26T04:37:34.126Z,-5.07
2018-02-26T04:38:34.367Z,-5.1
2018-02-26T04:39:34.341Z,-5.11
2018-02-26T04:40:34.378Z,-5.13
2018-02-26T04:41:34.306Z,-4.99
2018-02-26T04:42:34.275Z,-4.95
2018-02-26T04:43:34.280Z,-5
2018-02-26T04:44:34.243Z,-5.07
2018-02-26T04:45:34.212Z,-5.08
2018-02-26T04:46:34.192Z,-4.96
2018-02-26T04:47:34.174Z,-4.99
2018-02-26T04:48:34.164Z,-4.97
2018-02-26T04:49:33.889Z,-4.93
2018-02-26T04:50:34.115Z,-4.9
2018-02-26T04:51:34.098Z,-4.81
2018-02-26T04:52:33.826Z,-4.71
2018-02-26T04:53:34.073Z,-4.69
2018-02-26T04:54:34.041Z,-4.72
2018-02-26T04:55:34.041Z,-4.68
2018-02-26T04:56:33.994Z,-4.67
2018-02-26T04:57:33.982Z,-4.69
2018-02-26T04:58:34.020Z,-4.57
2018-02-26T04:59:33.962Z,-4.51
2018-02-26T05:00:33.920Z,-4.5
2018-02-26T05:01:33.906Z,-4.51
2018-02-26T05:02:33.881Z,-4.3
2018-02-26T05:03:33.854Z,-4.28
2018-02-26T05:04:33.854Z,-4.28
2018-02-26T05:05:33.813Z,-4.25
2018-02-26T05:06:33.806Z,-4.24
2018-02-26T05:07:33.776Z,-4.15
2018-02-26T05:08:33.769Z,-4.14
2018-02-26T05:09:33.739Z,-4.14
2018-02-26T05:10:33.718Z,-4.14
2018-02-26T05:11:33.706Z,-4.11
2018-02-26T05:12:33.676Z,-4.11
2018-02-26T05:13:33.417Z,-4.12
2018-02-26T05:14:33.642Z,-4.22
2018-02-26T05:15:33.618Z,-4.3
2018-02-26T05:16:33.607Z,-4.28
2018-02-26T05:17:33.687Z,-4.39
2018-02-26T05:18:33.553Z,-4.49
2018-02-26T05:19:33.540Z,-4.58
2018-02-26T05:20:33.527Z,-4.53
2018-02-26T05:21:33.520Z,-4.6
2018-02-26T05:22:33.226Z,-4.5
2018-02-26T05:23:33.458Z,-4.56
2018-02-26T05:24:33.185Z,-4.42
2018-02-26T05:25:33.434Z,-4.51
2018-02-26T05:26:33.404Z,-4.4
2018-02-26T05:27:33.385Z,-4.32
2018-02-26T05:28:33.361Z,-4.28
2018-02-26T05:29:33.350Z,-4.32
2018-02-26T05:30:33.337Z,-4.32
2018-02-26T05:31:33.045Z,-4.46
2018-02-26T05:32:33.288Z,-4.49
2018-02-26T05:33:33.264Z,-4.5
2018-02-26T05:34:32.991Z,-4.42
2018-02-26T05:35:33.230Z,-4.47
2018-02-26T05:36:33.202Z,-4.54
2018-02-26T05:37:33.191Z,-4.61
2018-02-26T05:38:33.163Z,-4.5
2018-02-26T05:39:33.152Z,-4.5
2018-02-26T05:40:32.873Z,-4.49
2018-02-26T05:41:33.111Z,-4.32
2018-02-26T05:42:32.831Z,-4.35
2018-02-26T05:43:32.818Z,-4.3
2018-02-26T05:44:33.068Z,-4.28
2018-02-26T05:45:33.020Z,-4.18
2018-02-26T05:46:32.747Z,-4.25
2018-02-26T05:47:32.986Z,-4.2
2018-02-26T05:48:32.974Z,-4.21
2018-02-26T05:49:32.694Z,-4.28
2018-02-26T05:50:32.674Z,-4.32
2018-02-26T05:51:32.912Z,-4.46
2018-02-26T05:52:32.380Z,-4.5
2018-02-26T05:53:32.865Z,-4.56
2018-02-26T05:54:32.609Z,-4.54
2018-02-26T05:55:32.858Z,-4.61
2018-02-26T05:56:32.817Z,-4.58
2018-02-26T05:57:32.795Z,-4.6
2018-02-26T05:58:32.518Z,-4.56
2018-02-26T05:59:32.762Z,-4.49
2018-02-26T06:00:32.736Z,-4.42
2018-02-26T06:01:32.457Z,-4.46
2018-02-26T06:02:32.767Z,-4.47
2018-02-26T06:03:32.680Z,-4.42
2018-02-26T06:04:32.391Z,-4.49
2018-02-26T06:05:32.644Z,-4.51
2018-02-26T06:06:32.617Z,-4.53
2018-02-26T06:07:32.329Z,-4.47
2018-02-26T06:08:32.573Z,-4.53
2018-02-26T06:09:32.554Z,-4.54
2018-02-26T06:10:32.280Z,-4.6
2018-02-26T06:11:32.558Z,-4.58
2018-02-26T06:12:32.498Z,-4.65
2018-02-26T06:13:32.222Z,-4.61
2018-02-26T06:14:32.460Z,-4.67
2018-02-26T06:15:32.563Z,-4.74
2018-02-26T06:16:32.424Z,-4.85
2018-02-26T06:17:32.394Z,-4.81
2018-02-26T06:18:32.396Z,-4.93
2018-02-26T06:19:32.106Z,-4.97
2018-02-26T06:20:32.343Z,-5.03
2018-02-26T06:21:32.439Z,-5.06
2018-02-26T06:22:32.313Z,-5.13
2018-02-26T06:23:32.019Z,-5.14
2018-02-26T06:24:32.264Z,-5.13
2018-02-26T06:25:32.248Z,-5.17
2018-02-26T06:26:32.232Z,-5.18
2018-02-26T06:27:32.207Z,-5.14
2018-02-26T06:28:32.178Z,-5.17
2018-02-26T06:29:32.177Z,-5.1
2018-02-26T06:30:31.872Z,-5.18
2018-02-26T06:31:32.115Z,-5.1
2018-02-26T06:32:32.104Z,-5.17
2018-02-26T06:33:32.085Z,-5.07
2018-02-26T06:34:32.071Z,-5
2018-02-26T06:35:32.054Z,-4.99
2018-02-26T06:36:32.012Z,-4.86
2018-02-26T06:37:31.989Z,-4.65
2018-02-26T06:38:31.721Z,-4.67
2018-02-26T06:39:31.959Z,-4.54
2018-02-26T06:40:31.936Z,-4.4
2018-02-26T06:41:31.654Z,-4.33
2018-02-26T06:42:31.632Z,-4.21
2018-02-26T06:43:31.872Z,-4.11
2018-02-26T06:44:31.605Z,-4.06
2018-02-26T06:45:31.838Z,-4.03
2018-02-26T06:46:31.829Z,-3.93
2018-02-26T06:47:31.800Z,-3.88
2018-02-26T06:48:31.783Z,-3.71
2018-02-26T06:49:31.504Z,-3.64
2018-02-26T06:50:31.738Z,-3.64
2018-02-26T06:51:31.470Z,-3.59
2018-02-26T06:52:31.706Z,-3.56
2018-02-26T06:53:31.425Z,-3.54
2018-02-26T06:54:31.668Z,-3.49
2018-02-26T06:55:31.655Z,-3.41
2018-02-26T06:56:31.638Z,-3.41
2018-02-26T06:57:31.613Z,-3.27
2018-02-26T06:58:31.599Z,-3.25
2018-02-26T06:59:31.588Z,-2.96
2018-02-26T07:00:31.575Z,-3.03
2018-02-26T07:01:31.560Z,-2.91
2018-02-26T07:02:31.523Z,-2.78
2018-02-26T07:03:31.512Z,-2.61
2018-02-26T07:04:31.488Z,-2.55
2018-02-26T07:05:31.530Z,-2.46
2018-02-26T07:06:31.473Z,-2.37
2018-02-26T07:07:31.443Z,-2.26
2018-02-26T07:08:31.423Z,-2.18
2018-02-26T07:09:31.437Z,-2.1
2018-02-26T07:10:31.422Z,-2.08
2018-02-26T07:11:31.390Z,-2.12
2018-02-26T07:12:31.363Z,-2.12
2018-02-26T07:13:31.362Z,-2.03
2018-02-26T07:14:31.080Z,-2
2018-02-26T07:15:31.309Z,-2.02
2018-02-26T07:16:31.301Z,-2.03
2018-02-26T07:17:31.016Z,-1.9
2018-02-26T07:18:31.257Z,-1.95
2018-02-26T07:19:30.997Z,-1.95
2018-02-26T07:20:31.242Z,-1.95
2018-02-26T07:21:31.218Z,-1.95
2018-02-26T07:22:31.215Z,-1.91
2018-02-26T07:23:31.196Z,-1.77
2018-02-26T07:24:30.925Z,-1.74
2018-02-26T07:25:31.164Z,-1.76
2018-02-26T07:26:30.893Z,-1.85
2018-02-26T07:27:31.136Z,-1.98
2018-02-26T07:28:31.125Z,-2.21
2018-02-26T07:29:30.849Z,-2.2
2018-02-26T07:30:31.089Z,-2.3
2018-02-26T07:31:31.079Z,-2.42
2018-02-26T07:32:31.055Z,-2.48
2018-02-26T07:33:30.774Z,-2.58
2018-02-26T07:34:30.501Z,-2.67
2018-02-26T07:35:30.765Z,-2.64
2018-02-26T07:36:30.739Z,-2.56
2018-02-26T07:37:30.980Z,-2.43
2018-02-26T07:38:30.706Z,-2.45
2018-02-26T07:39:30.682Z,-2.43
2018-02-26T07:40:30.942Z,-2.45
2018-02-26T07:41:30.911Z,-2.43
2018-02-26T07:42:30.381Z,-2.35
2018-02-26T07:43:30.893Z,-2.37
2018-02-26T07:44:30.884Z,-2.27
2018-02-26T07:45:30.333Z,-2.35
2018-02-26T07:46:30.583Z,-2.37
2018-02-26T07:47:30.561Z,-2.4
2018-02-26T07:48:30.800Z,-2.39
2018-02-26T07:49:30.542Z,-2.39
2018-02-26T07:50:30.515Z,-2.27
2018-02-26T07:51:30.523Z,-2.3
2018-02-26T07:52:30.499Z,-2.39
2018-02-26T07:53:30.869Z,-2.48
2018-02-26T07:54:30.459Z,-2.5
2018-02-26T07:55:30.450Z,-2.48
2018-02-26T07:56:30.696Z,-2.43
2018-02-26T07:57:30.415Z,-2.49
2018-02-26T07:58:30.698Z,-2.5
2018-02-26T07:59:30.632Z,-2.53
2018-02-26T08:00:30.649Z,-2.56
2018-02-26T08:01:30.617Z,-2.64
2018-02-26T08:02:30.600Z,-2.7
2018-02-26T08:03:30.076Z,-2.82
2018-02-26T08:04:30.310Z,-2.91
2018-02-26T08:05:30.301Z,-2.94
2018-02-26T08:06:30.323Z,-3.07
2018-02-26T08:07:30.513Z,-3.38
2018-02-26T08:08:30.498Z,-3.45
2018-02-26T08:09:30.495Z,-3.6
2018-02-26T08:10:30.469Z,-3.69
2018-02-26T08:11:30.189Z,-3.76
2018-02-26T08:12:30.434Z,-3.85
2018-02-26T08:13:30.413Z,-3.83
2018-02-26T08:14:30.126Z,-3.79
2018-02-26T08:15:30.117Z,-3.78
2018-02-26T08:16:30.358Z,-3.71
2018-02-26T08:17:30.330Z,-3.75
2018-02-26T08:18:30.327Z,-3.75
2018-02-26T08:19:30.087Z,-3.75
2018-02-26T08:20:30.316Z,-3.71
2018-02-26T08:21:30.275Z,-3.62
2018-02-26T08:22:30.259Z,-3.59
2018-02-26T08:23:30.226Z,-3.53
2018-02-26T08:24:29.950Z,-3.39
2018-02-26T08:25:29.928Z,-3.31
2018-02-26T08:26:30.183Z,-3.35
2018-02-26T08:27:29.902Z,-3.17
2018-02-26T08:28:30.141Z,-3
2018-02-26T08:29:30.126Z,-2.96
2018-02-26T08:30:30.108Z,-3.02
2018-02-26T08:31:30.089Z,-3
2018-02-26T08:32:30.071Z,-3.03
2018-02-26T08:33:30.055Z,-3.02
2018-02-26T08:34:30.040Z,-3
2018-02-26T08:35:30.017Z,-3.05
2018-02-26T08:36:29.747Z,-3
2018-02-26T08:37:29.980Z,-2.96
2018-02-26T08:38:29.963Z,-2.88
2018-02-26T08:39:29.960Z,-2.85
2018-02-26T08:40:29.676Z,-2.73
2018-02-26T08:41:29.698Z,-2.66
2018-02-26T08:42:29.625Z,-2.58
2018-02-26T08:43:29.880Z,-2.4
2018-02-26T08:44:29.608Z,-2.46
2018-02-26T08:45:29.587Z,-2.26
2018-02-26T08:46:29.560Z,-2.18
2018-02-26T08:47:29.807Z,-2.18
2018-02-26T08:48:29.783Z,-2.15
2018-02-26T08:49:29.585Z,-2.16
2018-02-26T08:50:29.746Z,-2.13
2018-02-26T08:51:29.731Z,-2.24
2018-02-26T08:52:29.715Z,-2.1
2018-02-26T08:53:29.698Z,-2.23
2018-02-26T08:54:29.686Z,-2.24
2018-02-26T08:55:29.662Z,-2.15
2018-02-26T08:56:29.396Z,-2.16
2018-02-26T08:57:29.620Z,-2.26
2018-02-26T08:58:29.632Z,-2.18
2018-02-26T08:59:29.340Z,-2.21
2018-02-26T09:00:29.582Z,-2.32
2018-02-26T09:01:29.548Z,-2.42
2018-02-26T09:02:29.544Z,-2.5
2018-02-26T09:03:29.535Z,-2.48
2018-02-26T09:04:29.503Z,-2.61
2018-02-26T09:05:29.496Z,-2.61
2018-02-26T09:06:29.222Z,-2.58
2018-02-26T09:07:29.464Z,-2.55
2018-02-26T09:08:29.425Z,-2.46
2018-02-26T09:09:29.406Z,-2.46
2018-02-26T09:10:29.397Z,-2.39
2018-02-26T09:11:29.179Z,-2.4
2018-02-26T09:12:29.350Z,-2.4
2018-02-26T09:13:29.352Z,-2.49
2018-02-26T09:14:29.069Z,-2.5
2018-02-26T09:15:29.308Z,-2.46
2018-02-26T09:16:29.294Z,-2.27
2018-02-26T09:17:29.272Z,-2.21
2018-02-26T09:18:29.278Z,-2.15
2018-02-26T09:19:28.979Z,-2.13
2018-02-26T09:20:28.956Z,-2
2018-02-26T09:21:28.939Z,-1.91
2018-02-26T09:22:29.174Z,-1.91
2018-02-26T09:23:29.210Z,-1.74
2018-02-26T09:24:28.887Z,-1.76
2018-02-26T09:25:28.860Z,-1.79
2018-02-26T09:26:29.122Z,-1.82
2018-02-26T09:27:29.134Z,-1.69
2018-02-26T09:28:28.832Z,-1.58
2018-02-26T09:29:28.541Z,-1.49
2018-02-26T09:30:29.030Z,-1.37
2018-02-26T09:31:29.039Z,-1.27
2018-02-26T09:32:29.009Z,-1.2
2018-02-26T09:33:28.725Z,-1.23
2018-02-26T09:34:28.703Z,-1.2
2018-02-26T09:35:28.939Z,-1.35
2018-02-26T09:36:28.935Z,-1.43
2018-02-26T09:37:28.658Z,-1.46
2018-02-26T09:38:28.910Z,-1.43
2018-02-26T09:39:28.630Z,-1.4
2018-02-26T09:40:28.878Z,-1.46
2018-02-26T09:41:28.853Z,-1.41
2018-02-26T09:42:28.835Z,-1.41
2018-02-26T09:43:28.557Z,-1.35
2018-02-26T09:44:28.307Z,-1.22
2018-02-26T09:45:28.781Z,-1.1
2018-02-26T09:46:28.782Z,-1.01
2018-02-26T09:47:28.491Z,-0.95
2018-02-26T09:48:28.740Z,-0.76
2018-02-26T09:49:28.469Z,-0.65
2018-02-26T09:50:28.699Z,-0.75
2018-02-26T09:51:28.669Z,-0.79
2018-02-26T09:52:28.691Z,-0.83
2018-02-26T09:53:28.661Z,-0.89
2018-02-26T09:54:28.617Z,-1.02
2018-02-26T09:55:28.641Z,-1.1
2018-02-26T09:56:28.335Z,-1.27
2018-02-26T09:57:28.593Z,-1.16
2018-02-26T09:58:28.568Z,-1.19
2018-02-26T09:59:28.303Z,-0.98
2018-02-26T10:00:28.523Z,-0.8
2018-02-26T10:01:28.509Z,-0.7
2018-02-26T10:02:28.502Z,-0.62
2018-02-26T10:03:28.471Z,-0.57
2018-02-26T10:04:28.193Z,-0.47
2018-02-26T10:05:28.449Z,-0.36
2018-02-26T10:06:28.476Z,-0.25
2018-02-26T10:07:28.151Z,-0.22
2018-02-26T10:08:28.393Z,-0.21
2018-02-26T10:09:28.392Z,-0.14
2018-02-26T10:10:28.365Z,-0.11
2018-02-26T10:11:28.360Z,-0.08
2018-02-26T10:12:28.353Z,-0.05
2018-02-26T10:13:28.327Z,-0.04
2018-02-26T10:14:28.300Z,-0.1
2018-02-26T10:15:28.287Z,-0.14
2018-02-26T10:16:28.005Z,-0.19
2018-02-26T10:17:28.254Z,-0.21
2018-02-26T10:18:27.972Z,-0.18
2018-02-26T10:19:28.071Z,0
2018-02-26T10:20:28.215Z,0.04
2018-02-26T10:21:27.944Z,0.11
2018-02-26T10:22:27.915Z,0.26
2018-02-26T10:23:28.156Z,0.18
2018-02-26T10:24:27.889Z,0.21
2018-02-26T10:25:28.124Z,0.15
2018-02-26T10:26:28.104Z,0.07
2018-02-26T10:27:28.320Z,0.13
2018-02-26T10:28:28.080Z,0.02
2018-02-26T10:29:28.091Z,-0.08
2018-02-26T10:30:27.779Z,-0.08
2018-02-26T10:31:28.031Z,-0.16
2018-02-26T10:32:28.016Z,-0.31
2018-02-26T10:33:28.002Z,-0.33
2018-02-26T10:34:28.003Z,-0.19
2018-02-26T10:35:27.970Z,-0.26
2018-02-26T10:36:27.961Z,-0.21
2018-02-26T10:37:27.669Z,-0.18
2018-02-26T10:38:27.426Z,-0.15
2018-02-26T10:39:27.945Z,0.08
2018-02-26T10:40:27.907Z,0.14
2018-02-26T10:41:27.899Z,-0.04
2018-02-26T10:42:27.870Z,-0.08
2018-02-26T10:43:27.580Z,-0.21
2018-02-26T10:44:27.857Z,-0.39
2018-02-26T10:45:47.004Z,-0.47
2018-02-26T10:46:27.773Z,-0.44
2018-02-26T10:47:27.751Z,-0.37
2018-02-26T10:48:27.768Z,-0.39
2018-02-26T10:49:27.479Z,-0.36
2018-02-26T10:50:27.718Z,-0.33
2018-02-26T10:51:27.703Z,-0.37
2018-02-26T10:52:27.652Z,-0.23
2018-02-26T10:53:27.661Z,-0.33
2018-02-26T10:54:27.671Z,-0.47
2018-02-26T10:55:27.619Z,-0.6
2018-02-26T10:56:27.612Z,-0.8
2018-02-26T10:57:27.625Z,-1.13
2018-02-26T10:58:27.609Z,-1.27
2018-02-26T10:59:27.568Z,-1.16
2018-02-26T11:00:27.525Z,-1.37
2018-02-26T11:01:27.529Z,-1.34
2018-02-26T11:02:27.517Z,-1.35
2018-02-26T11:03:27.247Z,-1.4
2018-02-26T11:04:27.463Z,-1.34
2018-02-26T11:05:27.477Z,-1.4
2018-02-26T11:06:27.194Z,-1.43
2018-02-26T11:07:27.430Z,-1.51
2018-02-26T11:08:27.427Z,-1.52
2018-02-26T11:09:27.129Z,-1.48
2018-02-26T11:10:27.378Z,-1.34
2018-02-26T11:11:27.349Z,-1.17
2018-02-26T11:12:27.330Z,-1.27
2018-02-26T11:13:27.335Z,-1.19
2018-02-26T11:14:27.074Z,-1.19
2018-02-26T11:15:27.324Z,-1.2
2018-02-26T11:16:27.310Z,-1.12
2018-02-26T11:17:27.641Z,-1.13
2018-02-26T11:18:27.253Z,-0.98
2018-02-26T11:19:26.974Z,-0.94
2018-02-26T11:20:27.235Z,-0.98
2018-02-26T11:21:27.271Z,-0.94
2018-02-26T11:22:27.188Z,-0.83
2018-02-26T11:23:27.185Z,-0.75
2018-02-26T11:24:27.128Z,-0.57
2018-02-26T11:25:27.122Z,-0.44
2018-02-26T11:26:27.119Z,-0.51
2018-02-26T11:27:27.111Z,-0.52
2018-02-26T11:28:27.082Z,-0.37
2018-02-26T11:29:27.061Z,-0.36
2018-02-26T11:30:27.048Z,-0.23
2018-02-26T11:31:26.517Z,-0.22
2018-02-26T11:32:26.998Z,-0.16
2018-02-26T11:33:26.998Z,-0.01
2018-02-26T11:34:27.059Z,0.03
2018-02-26T11:35:26.701Z,-0.08
2018-02-26T11:36:26.932Z,-0.21
2018-02-26T11:37:26.915Z,-0.33
2018-02-26T11:38:26.935Z,-0.26
2018-02-26T11:39:26.916Z,-0.33
2018-02-26T11:40:26.860Z,-0.29
2018-02-26T11:41:26.872Z,-0.44
2018-02-26T11:42:26.865Z,-0.43
2018-02-26T11:43:26.823Z,-0.43
2018-02-26T11:44:26.818Z,-0.39
2018-02-26T11:45:26.825Z,-0.37
2018-02-26T11:46:26.775Z,-0.55
2018-02-26T11:47:26.757Z,-0.52
2018-02-26T11:48:26.746Z,-0.64
2018-02-26T11:49:26.704Z,-0.7
2018-02-26T11:50:26.493Z,-0.83
2018-02-26T11:51:26.736Z,-0.78
2018-02-26T11:52:26.693Z,-0.82
2018-02-26T11:53:26.830Z,-0.83
2018-02-26T11:54:26.675Z,-0.85
2018-02-26T11:55:26.642Z,-1.04
2018-02-26T11:56:26.631Z,-1.15
2018-02-26T11:57:26.596Z,-1.17
2018-02-26T11:58:26.331Z,-1.28
2018-02-26T11:59:26.576Z,-1.16
2018-02-26T12:00:26.317Z,-1.22
2018-02-26T12:01:26.519Z,-1.17
2018-02-26T12:02:26.550Z,-1.12
2018-02-26T12:03:26.222Z,-0.94
2018-02-26T12:04:26.501Z,-0.83
2018-02-26T12:05:26.550Z,-0.8
2018-02-26T12:06:26.489Z,-0.7
2018-02-26T12:07:26.453Z,-0.7
2018-02-26T12:08:26.681Z,-0.73
2018-02-26T12:09:26.196Z,-0.57
2018-02-26T12:10:26.378Z,-0.61
2018-02-26T12:11:26.122Z,-0.58
2018-02-26T12:12:26.390Z,-0.51
2018-02-26T12:13:26.094Z,-0.55
2018-02-26T12:14:26.296Z,-0.51
2018-02-26T12:15:26.055Z,-0.51
2018-02-26T12:16:26.262Z,-0.47
2018-02-26T12:17:26.295Z,-0.4
2018-02-26T12:18:26.245Z,-0.34
2018-02-26T12:19:26.255Z,-0.18
2018-02-26T12:20:26.051Z,-0.07
2018-02-26T12:21:26.233Z,-0.07
2018-02-26T12:22:26.257Z,-0.04
2018-02-26T12:23:26.186Z,0
2018-02-26T12:24:26.156Z,-0.01
2018-02-26T12:25:25.878Z,-0.03
2018-02-26T12:26:26.105Z,-0.11
2018-02-26T12:27:26.106Z,-0.04
2018-02-26T12:28:26.096Z,-0.04
2018-02-26T12:29:25.821Z,-0.15
2018-02-26T12:30:26.038Z,-0.19
2018-02-26T12:31:26.033Z,-0.28
2018-02-26T12:32:26.091Z,-0.54
2018-02-26T12:33:26.019Z,-0.69
2018-02-26T12:34:26.021Z,-0.73
2018-02-26T12:35:25.987Z,-0.83
2018-02-26T12:36:25.974Z,-0.72
2018-02-26T12:37:25.933Z,-0.75
2018-02-26T12:38:25.945Z,-0.82
2018-02-26T12:39:25.936Z,-0.72
2018-02-26T12:40:25.906Z,-0.78
2018-02-26T12:41:25.646Z,-0.8
2018-02-26T12:42:25.874Z,-0.89
2018-02-26T12:43:25.617Z,-1.01
2018-02-26T12:44:25.840Z,-0.94
2018-02-26T12:45:25.829Z,-0.83
2018-02-26T12:46:25.808Z,-0.82
2018-02-26T12:47:25.797Z,-0.86
2018-02-26T12:48:25.771Z,-0.92
2018-02-26T12:49:25.759Z,-0.98
2018-02-26T12:50:25.824Z,-1.02
2018-02-26T12:51:25.729Z,-1.04
2018-02-26T12:52:25.718Z,-0.98
2018-02-26T12:53:25.442Z,-0.97
2018-02-26T12:54:25.724Z,-1.09
2018-02-26T12:55:25.670Z,-1.27
2018-02-26T12:56:25.658Z,-1.17